createdAt,value
2019-01-11T00:02:23.821Z,5.17
2019-01-11T00:04:53.392Z,5.83
2019-01-11T00:07:22.953Z,6.77
2019-01-11T00:09:52.789Z,5.27
2019-01-11T00:12:22.366Z,8.73
2019-01-11T00:14:51.848Z,6.87
2019-01-11T00:17:24.220Z,6.33
2019-01-11T00:19:53.897Z,6.77
2019-01-11T00:22:23.425Z,6.83
2019-01-11T00:24:53.008Z,6.20
2019-01-11T00:27:22.575Z,5.33
2019-01-11T00:29:52.254Z,8.03
2019-01-11T00:32:21.930Z,7.83
2019-01-11T00:34:51.688Z,8.33
2019-01-11T00:37:21.446Z,5.97
2019-01-11T00:39:54.036Z,8.50
2019-01-11T00:42:23.744Z,8.37
2019-01-11T00:44:53.630Z,7.40
2019-01-11T00:47:23.423Z,9.37
2019-01-11T00:49:53.549Z,8.03
2019-01-11T00:52:23.306Z,8.23
2019-01-11T00:54:55.651Z,8.33
2019-01-11T00:57:25.217Z,9.30
2019-01-11T00:59:57.913Z,9.70
2019-01-11T01:02:27.678Z,10.13
2019-01-11T01:04:57.336Z,11.83
2019-01-11T01:07:26.886Z,12.73
2019-01-11T01:09:56.516Z,10.80
2019-01-11T01:12:26.286Z,13.03
2019-01-11T01:15:28.953Z,12.67
2019-01-11T01:25:12.755Z,14.40
2019-01-11T01:28:30.273Z,13.30
2019-01-11T01:30:40.072Z,13.67
2019-01-11T01:36:25.198Z,14.30
2019-01-11T01:38:59.800Z,15.57
2019-01-11T01:41:42.408Z,12.67
2019-01-11T01:44:42.626Z,14.50
2019-01-11T01:47:23.193Z,12.17
2019-01-11T01:49:55.775Z,15.63
2019-01-11T01:59:06.259Z,13.87
2019-01-11T02:01:44.402Z,13.90
2019-01-11T02:04:18.501Z,13.63
2019-01-11T02:06:50.494Z,13.00
2019-01-11T02:09:33.369Z,14.90
2019-01-11T02:12:02.956Z,12.23
2019-01-11T02:14:38.181Z,13.90
2019-01-11T02:17:20.598Z,10.63
2019-01-11T02:19:53.500Z,12.33
2019-01-11T02:22:24.380Z,10.87
2019-01-11T02:24:54.082Z,10.63
2019-01-11T02:27:23.758Z,10.93
2019-01-11T02:29:53.378Z,11.47
2019-01-11T02:32:23.226Z,11.60
2019-01-11T02:34:55.007Z,11.57
2019-01-11T02:37:24.487Z,11.97
2019-01-11T02:39:53.942Z,11.73
2019-01-11T02:42:23.459Z,11.60
2019-01-11T02:44:52.902Z,13.17
2019-01-11T02:47:22.481Z,14.07
2019-01-11T02:49:52.153Z,16.23
2019-01-11T02:52:21.698Z,13.27
2019-01-11T02:54:51.235Z,12.47
2019-01-11T02:57:20.936Z,12.10
2019-01-11T02:59:53.013Z,10.30
2019-01-11T03:02:22.635Z,13.30
2019-01-11T03:04:52.082Z,13.37
2019-01-11T03:07:21.388Z,11.37
2019-01-11T03:09:50.782Z,14.83
2019-01-11T03:12:20.093Z,14.37
2019-01-11T03:14:49.506Z,12.67
2019-01-11T03:17:18.891Z,17.27
2019-01-11T03:19:48.442Z,15.77
2019-01-11T03:22:17.857Z,12.63
2019-01-11T03:24:52.782Z,9.93
2019-01-11T03:27:26.749Z,13.43
2019-01-11T03:29:56.146Z,12.77
2019-01-11T03:32:30.627Z,12.57
2019-01-11T03:35:12.113Z,15.30
2019-01-11T03:37:59.755Z,10.87
2019-01-11T03:40:29.367Z,10.97
2019-01-11T03:43:00.259Z,10.13
2019-01-11T03:45:30.114Z,9.87
2019-01-11T03:48:10.150Z,16.73
2019-01-11T03:50:40.798Z,20.63
2019-01-11T03:53:10.367Z,16.70
2019-01-11T03:55:39.942Z,15.97
2019-01-11T03:58:09.555Z,18.60
2019-01-11T04:00:39.119Z,23.07
2019-01-11T04:03:15.497Z,21.80
2019-01-11T04:05:45.052Z,16.50
2019-01-11T04:08:14.465Z,24.47
2019-01-11T04:10:44.624Z,17.03
2019-01-11T04:13:14.892Z,16.53
2019-01-11T04:15:44.460Z,20.73
2019-01-11T04:18:43.480Z,22.90
2019-01-11T04:24:23.729Z,19.03
2019-01-11T04:26:56.592Z,22.23
2019-01-11T04:29:29.352Z,25.60
2019-01-11T04:32:00.413Z,26.93
2019-01-11T04:34:30.514Z,28.03
2019-01-11T04:37:00.259Z,32.30
2019-01-11T04:39:30.590Z,26.70
2019-01-11T04:42:05.344Z,28.17
2019-01-11T04:45:07.242Z,26.53
2019-01-11T04:47:36.686Z,29.90
2019-01-11T04:50:09.537Z,19.80
2019-01-11T04:52:40.691Z,22.17
2019-01-11T04:55:10.376Z,27.93
2019-01-11T04:57:43.985Z,30.67
2019-01-11T05:00:39.877Z,27.27
2019-01-11T05:03:09.565Z,28.90
2019-01-11T05:05:41.013Z,23.77
2019-01-11T05:08:10.745Z,22.00
2019-01-11T05:10:45.585Z,37.83
2019-01-11T05:13:44.515Z,34.20
2019-01-11T05:16:16.360Z,27.33
2019-01-11T05:18:46.167Z,41.93
2019-01-11T05:21:19.546Z,23.57
2019-01-11T05:23:50.463Z,31.43
2019-01-11T05:26:20.104Z,28.73
2019-01-11T05:28:49.772Z,35.23
2019-01-11T05:31:19.278Z,23.67
2019-01-11T05:33:49.271Z,23.90
2019-01-11T05:36:18.682Z,36.20
2019-01-11T05:38:48.167Z,34.53
2019-01-11T05:41:17.695Z,41.07
2019-01-11T05:43:47.259Z,40.20
2019-01-11T05:46:16.803Z,31.47
2019-01-11T05:48:47.764Z,25.93
2019-01-11T05:51:17.912Z,27.67
2019-01-11T05:53:47.675Z,42.17
2019-01-11T05:56:19.128Z,42.10
2019-01-11T05:59:03.964Z,34.60
2019-01-11T06:01:33.588Z,30.20
2019-01-11T06:04:24.069Z,38.40
2019-01-11T06:07:18.198Z,33.50
2019-01-11T06:09:47.696Z,55.05
2019-01-11T06:12:17.091Z,46.40
2019-01-11T06:14:46.447Z,49.37
2019-01-11T06:17:21.921Z,50.03
2019-01-11T06:19:51.235Z,28.60
2019-01-11T06:22:20.556Z,43.37
2019-01-11T06:24:49.994Z,49.43
2019-01-11T06:27:19.303Z,42.20
2019-01-11T06:29:48.603Z,32.27
2019-01-11T06:32:17.963Z,44.90
2019-01-11T06:34:47.297Z,46.10
2019-01-11T06:37:16.619Z,48.23
2019-01-11T06:39:45.895Z,38.13
2019-01-11T06:42:25.084Z,42.70
2019-01-11T06:44:54.767Z,43.33
2019-01-11T06:47:24.087Z,41.50
2019-01-11T06:49:53.404Z,47.80
2019-01-11T06:52:22.685Z,32.87
2019-01-11T06:54:51.987Z,41.33
2019-01-11T06:57:21.347Z,37.03
2019-01-11T06:59:51.121Z,51.33
2019-01-11T07:02:20.432Z,41.43
2019-01-11T07:04:49.746Z,37.70
2019-01-11T07:07:19.061Z,41.27
2019-01-11T07:09:48.616Z,44.70
2019-01-11T07:12:19.241Z,46.17
2019-01-11T07:14:48.560Z,53.50
2019-01-11T07:17:17.916Z,55.77
2019-01-11T07:19:50.767Z,94.47
2019-01-11T07:22:20.099Z,60.77
2019-01-11T07:24:53.912Z,46.73
2019-01-11T07:27:23.228Z,50.93
2019-01-11T07:29:52.549Z,47.47
2019-01-11T07:32:21.915Z,49.00
2019-01-11T07:34:51.279Z,37.23
2019-01-11T07:37:20.608Z,47.00
2019-01-11T07:39:49.924Z,66.60
2019-01-11T07:42:19.263Z,45.40
2019-01-11T07:44:48.564Z,30.77
2019-01-11T07:47:17.900Z,44.77
2019-01-11T07:49:48.823Z,51.53
2019-01-11T07:52:18.192Z,52.80
2019-01-11T07:54:47.491Z,45.00
2019-01-11T07:57:16.843Z,55.60
2019-01-11T07:59:46.220Z,71.00
2019-01-11T08:02:15.507Z,49.63
2019-01-11T08:04:44.847Z,45.60
2019-01-11T08:07:14.114Z,56.67
2019-01-11T08:09:43.503Z,54.43
2019-01-11T08:12:12.835Z,65.60
2019-01-11T08:14:42.159Z,50.73
2019-01-11T08:17:11.488Z,49.33
2019-01-11T08:19:40.780Z,54.90
2019-01-11T08:22:15.756Z,53.40
2019-01-11T08:24:51.464Z,43.50
2019-01-11T08:27:21.419Z,56.00
2019-01-11T08:29:50.770Z,58.43
2019-01-11T08:32:20.061Z,43.93
2019-01-11T08:34:49.391Z,53.27
2019-01-11T08:37:20.317Z,49.30
2019-01-11T08:39:49.638Z,60.47
2019-01-11T08:42:18.962Z,76.57
2019-01-11T08:44:48.276Z,53.10
2019-01-11T08:47:17.669Z,80.83
2019-01-11T08:49:46.932Z,61.07
2019-01-11T08:52:16.248Z,70.63
2019-01-11T08:54:45.576Z,68.40
2019-01-11T08:57:14.881Z,55.43
2019-01-11T08:59:44.233Z,46.57
2019-01-11T09:02:13.609Z,46.67
2019-01-11T09:04:42.969Z,73.33
2019-01-11T09:07:12.327Z,100.00
2019-01-11T09:09:42.365Z,68.93
2019-01-11T09:12:11.736Z,95.60
2019-01-11T09:14:59.695Z,82.33
2019-01-11T09:17:29.051Z,78.20
2019-01-11T09:19:58.351Z,64.03
2019-01-11T09:22:27.710Z,58.07
2019-01-11T09:24:57.047Z,95.17
2019-01-11T09:27:26.438Z,97.27
2019-01-11T09:29:55.763Z,72.03
2019-01-11T09:32:25.525Z,78.20
2019-01-11T09:34:56.054Z,110.47
2019-01-11T09:37:25.405Z,56.93
2019-01-11T09:39:54.743Z,69.73
2019-01-11T09:42:24.020Z,68.07
2019-01-11T09:44:54.965Z,75.27
2019-01-11T09:47:24.303Z,72.50
2019-01-11T09:49:53.690Z,60.20
2019-01-11T09:52:23.060Z,66.87
2019-01-11T09:54:52.429Z,81.30
2019-01-11T09:57:21.752Z,63.30
2019-01-11T09:59:51.079Z,82.73
2019-01-11T10:02:40.517Z,77.10
2019-01-11T10:05:10.772Z,59.50
2019-01-11T10:07:40.113Z,66.47
2019-01-11T10:10:12.447Z,53.40
2019-01-11T10:12:41.732Z,54.77
2019-01-11T10:15:12.366Z,67.93
2019-01-11T10:17:42.688Z,54.97
2019-01-11T10:20:12.309Z,50.90
2019-01-11T10:22:42.101Z,73.03
2019-01-11T10:25:11.560Z,60.23
2019-01-11T10:27:40.930Z,53.80
2019-01-11T10:30:13.265Z,51.93
2019-01-11T10:32:42.577Z,58.30
2019-01-11T10:35:12.152Z,50.80
2019-01-11T10:37:41.525Z,56.07
2019-01-11T10:40:12.315Z,60.70
2019-01-11T10:42:42.046Z,44.93
2019-01-11T10:45:14.507Z,50.20
2019-01-11T10:47:43.773Z,57.07
2019-01-11T10:50:14.848Z,41.87
2019-01-11T10:52:44.123Z,48.03
2019-01-11T10:55:14.689Z,46.23
2019-01-11T10:57:44.527Z,44.70
2019-01-11T11:00:19.078Z,50.53
2019-01-11T11:02:48.543Z,46.10
2019-01-11T11:05:17.860Z,43.23
2019-01-11T11:07:47.175Z,64.87
2019-01-11T11:10:16.474Z,44.07
2019-01-11T11:12:45.935Z,41.47
2019-01-11T11:15:16.557Z,48.17
2019-01-11T11:17:45.926Z,51.33
2019-01-11T11:20:16.880Z,47.13
2019-01-11T11:22:46.201Z,41.23
2019-01-11T11:25:18.205Z,45.80
2019-01-11T11:27:47.565Z,31.87
2019-01-11T11:30:17.660Z,32.67
2019-01-11T11:33:00.171Z,55.80
2019-01-11T11:35:30.399Z,25.37
2019-01-11T11:37:59.732Z,32.77
2019-01-11T11:40:32.704Z,30.33
2019-01-11T11:43:02.044Z,32.80
2019-01-11T11:45:31.772Z,33.17
2019-01-11T11:48:01.119Z,29.47
2019-01-11T11:50:30.467Z,27.53
2019-01-11T11:53:00.680Z,39.33
2019-01-11T11:55:30.023Z,21.60
2019-01-11T11:57:59.323Z,24.17
2019-01-11T12:00:28.788Z,21.70
2019-01-11T12:02:58.216Z,22.07
2019-01-11T12:05:27.522Z,21.07
2019-01-11T12:07:56.812Z,18.77
2019-01-11T12:10:26.168Z,24.07
2019-01-11T12:12:55.543Z,23.70
2019-01-11T12:15:24.812Z,18.20
2019-01-11T12:17:54.124Z,19.00
2019-01-11T12:20:31.148Z,20.33
2019-01-11T12:23:00.452Z,14.00
2019-01-11T12:25:29.853Z,23.90
2019-01-11T12:27:59.155Z,14.37
2019-01-11T12:30:31.402Z,17.47
2019-01-11T12:33:00.780Z,13.90
2019-01-11T12:35:31.833Z,21.13
2019-01-11T12:38:01.212Z,13.87
2019-01-11T12:40:30.583Z,17.60
2019-01-11T12:42:59.944Z,13.67
2019-01-11T12:45:29.276Z,11.07
2019-01-11T12:47:58.633Z,13.17
2019-01-11T12:50:28.501Z,11.03
2019-01-11T12:52:57.875Z,12.73
2019-01-11T12:55:29.036Z,12.23
2019-01-11T12:57:58.364Z,14.53
2019-01-11T13:00:27.696Z,14.37
2019-01-11T13:02:58.999Z,11.50
2019-01-11T13:05:28.409Z,12.63
2019-01-11T13:07:58.134Z,12.10
2019-01-11T13:10:27.620Z,11.80
2019-01-11T13:12:56.955Z,16.60
2019-01-11T13:15:26.359Z,10.20
2019-01-11T13:17:55.640Z,8.70
2019-01-11T13:20:25.090Z,11.17
2019-01-11T13:22:54.491Z,11.67
2019-01-11T13:25:23.816Z,6.67
2019-01-11T13:27:53.174Z,5.97
2019-01-11T13:30:22.552Z,6.03
2019-01-11T13:32:51.879Z,7.97
2019-01-11T13:35:21.228Z,8.70
2019-01-11T13:37:50.674Z,12.33
2019-01-11T13:40:24.874Z,5.23
2019-01-11T13:42:54.718Z,6.97
2019-01-11T13:45:24.067Z,6.47
2019-01-11T13:47:53.361Z,9.30
2019-01-11T13:50:42.528Z,9.80
2019-01-11T13:53:16.489Z,5.40
2019-01-11T13:55:45.804Z,6.93
2019-01-11T13:58:15.360Z,12.03
2019-01-11T14:00:44.736Z,7.63
2019-01-11T14:03:14.116Z,6.03
2019-01-11T14:05:45.760Z,7.03
2019-01-11T14:08:15.128Z,7.00
2019-01-11T14:10:44.496Z,6.43
2019-01-11T14:13:13.860Z,7.97
2019-01-11T14:15:43.295Z,5.80
2019-01-11T14:18:12.671Z,7.30
2019-01-11T14:20:42.194Z,5.10
2019-01-11T14:23:11.585Z,7.43
2019-01-11T14:25:41.028Z,6.50
2019-01-11T14:28:10.366Z,6.83
2019-01-11T14:30:41.032Z,8.97
2019-01-11T14:33:12.171Z,4.37
2019-01-11T14:35:41.757Z,6.50
2019-01-11T14:38:13.149Z,4.50
2019-01-11T14:40:44.584Z,5.80
2019-01-11T14:43:13.956Z,7.37
2019-01-11T14:45:45.605Z,4.37
2019-01-11T14:48:14.964Z,9.93
2019-01-11T14:50:44.303Z,6.90
2019-01-11T14:53:13.660Z,7.07
2019-01-11T14:55:42.951Z,7.27
2019-01-11T14:58:13.325Z,10.77
2019-01-11T15:00:42.703Z,5.80
2019-01-11T15:03:12.024Z,5.17
2019-01-11T15:05:41.361Z,5.87
2019-01-11T15:08:11.006Z,6.83
2019-01-11T15:10:40.320Z,8.07
2019-01-11T15:13:09.664Z,5.23
2019-01-11T15:15:38.986Z,8.53
2019-01-11T15:18:08.286Z,6.77
2019-01-11T15:20:37.720Z,7.17
2019-01-11T15:23:13.362Z,5.60
2019-01-11T15:25:38.257Z,7.00
2019-01-11T15:28:08.810Z,7.97
2019-01-11T15:30:38.163Z,5.30
2019-01-11T15:33:11.157Z,7.80
2019-01-11T15:35:40.531Z,2.77
2019-01-11T15:38:10.128Z,9.80
2019-01-11T15:40:39.872Z,7.00
2019-01-11T15:43:09.255Z,4.87
2019-01-11T15:45:40.946Z,6.60
2019-01-11T15:48:25.443Z,8.13
2019-01-11T15:50:56.949Z,13.97
2019-01-11T15:53:32.715Z,10.27
2019-01-11T15:56:02.417Z,8.93
2019-01-11T15:58:34.635Z,8.90
2019-01-11T16:01:05.658Z,8.50
2019-01-11T16:03:35.027Z,6.77
2019-01-11T16:06:36.629Z,10.23
2019-01-11T16:09:58.671Z,5.93
2019-01-11T16:12:40.462Z,8.07
2019-01-11T16:15:46.989Z,9.53
2019-01-11T16:18:21.124Z,7.53
2019-01-11T16:20:50.704Z,8.60
2019-01-11T16:23:20.052Z,7.27
2019-01-11T16:25:49.351Z,6.13
2019-01-11T16:28:18.730Z,10.33
2019-01-11T16:30:48.146Z,7.97
2019-01-11T16:33:17.484Z,12.13
2019-01-11T16:35:46.863Z,12.13
2019-01-11T16:38:19.061Z,6.27
2019-01-11T16:40:55.530Z,5.77
2019-01-11T16:43:27.689Z,7.03
2019-01-11T16:45:58.723Z,11.40
2019-01-11T16:48:28.232Z,5.63
2019-01-11T16:51:00.793Z,9.60
2019-01-11T16:53:30.215Z,9.17
2019-01-11T16:56:00.861Z,8.43
2019-01-11T16:58:30.273Z,8.80
2019-01-11T17:00:59.658Z,9.83
2019-01-11T17:03:29.006Z,9.27
2019-01-11T17:06:02.730Z,9.67
2019-01-11T17:08:32.256Z,9.90
2019-01-11T17:11:01.683Z,7.97
2019-01-11T17:13:31.063Z,8.33
2019-01-11T17:16:00.451Z,9.87
2019-01-11T17:18:29.739Z,4.47
2019-01-11T17:20:59.142Z,6.93
2019-01-11T17:23:30.297Z,6.00
2019-01-11T17:25:59.759Z,8.50
2019-01-11T17:28:29.073Z,8.57
2019-01-11T17:30:58.524Z,8.27
2019-01-11T17:33:27.865Z,9.73
2019-01-11T17:35:57.313Z,5.27
2019-01-11T17:38:26.715Z,6.07
2019-01-11T17:40:56.079Z,6.00
2019-01-11T17:43:25.458Z,6.30
2019-01-11T17:45:54.809Z,5.20
2019-01-11T17:48:24.207Z,6.63
2019-01-11T17:50:53.550Z,4.80
2019-01-11T17:53:22.931Z,10.37
2019-01-11T17:55:52.276Z,5.93
2019-01-11T17:58:21.626Z,6.90
2019-01-11T18:00:51.052Z,6.10
2019-01-11T18:03:20.331Z,6.27
2019-01-11T18:05:49.877Z,6.63
2019-01-11T18:08:20.842Z,6.60
2019-01-11T18:10:50.183Z,7.37
2019-01-11T18:13:19.603Z,10.00
2019-01-11T18:15:48.911Z,9.60
2019-01-11T18:18:18.216Z,11.47
2019-01-11T18:20:47.606Z,9.17
2019-01-11T18:23:20.286Z,9.43
2019-01-11T18:25:49.676Z,11.53
2019-01-11T18:28:19.120Z,6.40
2019-01-11T18:30:48.503Z,7.63
2019-01-11T18:33:18.042Z,8.90
2019-01-11T18:35:49.567Z,8.83
2019-01-11T18:38:18.925Z,10.77
2019-01-11T18:40:48.229Z,7.70
2019-01-11T18:43:20.826Z,11.23
2019-01-11T18:45:50.134Z,18.10
2019-01-11T18:48:19.443Z,7.83
2019-01-11T18:50:48.830Z,11.20
2019-01-11T18:53:18.224Z,8.37
2019-01-11T18:55:51.533Z,11.83
2019-01-11T18:58:21.153Z,8.23
2019-01-11T19:00:50.617Z,7.60
2019-01-11T19:03:20.087Z,11.57
2019-01-11T19:05:49.511Z,7.33
2019-01-11T19:08:19.030Z,11.93
2019-01-11T19:10:49.833Z,18.00
2019-01-11T19:13:19.884Z,11.77
2019-01-11T19:15:49.236Z,9.97
2019-01-11T19:18:18.640Z,12.27
2019-01-11T19:20:48.041Z,11.77
2019-01-11T19:23:20.506Z,9.17
2019-01-11T19:25:48.435Z,6.03
2019-01-11T19:28:17.822Z,10.13
2019-01-11T19:30:50.045Z,9.70
2019-01-11T19:33:19.668Z,9.67
2019-01-11T19:35:58.925Z,13.97
2019-01-11T19:38:28.405Z,8.07
2019-01-11T19:40:59.376Z,8.73
2019-01-11T19:43:31.549Z,9.33
2019-01-11T19:46:00.935Z,10.83
2019-01-11T19:48:30.288Z,9.07
2019-01-11T19:50:59.752Z,10.87
2019-01-11T19:53:32.179Z,13.67
2019-01-11T19:56:01.624Z,9.30
2019-01-11T19:58:33.447Z,8.10
2019-01-11T20:01:02.912Z,9.37
2019-01-11T20:03:35.148Z,8.20
2019-01-11T20:06:04.637Z,14.87
2019-01-11T20:08:34.052Z,9.63
2019-01-11T20:11:07.685Z,9.20
2019-01-11T20:13:37.443Z,15.97
2019-01-11T20:16:08.354Z,11.70
2019-01-11T20:18:37.741Z,12.23
2019-01-11T20:21:11.571Z,11.97
2019-01-11T20:23:43.665Z,9.87
2019-01-11T20:26:13.135Z,12.53
2019-01-11T20:28:42.437Z,9.27
2019-01-11T20:31:11.797Z,15.23
2019-01-11T20:33:41.332Z,12.43
2019-01-11T20:36:10.684Z,16.87
2019-01-11T20:38:40.918Z,18.10
2019-01-11T20:41:10.299Z,15.70
2019-01-11T20:43:39.641Z,14.03
2019-01-11T20:46:08.980Z,14.20
2019-01-11T20:48:38.368Z,26.40
2019-01-11T20:51:07.734Z,21.63
2019-01-11T20:53:41.618Z,12.50
2019-01-11T20:56:08.161Z,15.40
2019-01-11T20:58:37.544Z,12.77
2019-01-11T21:01:07.748Z,10.50
2019-01-11T21:03:37.105Z,7.97
2019-01-11T21:06:06.612Z,12.27
2019-01-11T21:08:35.964Z,10.43
2019-01-11T21:11:05.313Z,12.67
2019-01-11T21:13:34.662Z,10.40
2019-01-11T21:16:04.629Z,8.40
2019-01-11T21:18:33.988Z,13.33
2019-01-11T21:21:05.139Z,9.20
2019-01-11T21:23:34.530Z,8.80
2019-01-11T21:26:03.935Z,8.17
2019-01-11T21:28:33.323Z,7.43
2019-01-11T21:31:02.685Z,5.93
2019-01-11T21:33:32.045Z,7.70
2019-01-11T21:36:01.420Z,9.57
2019-01-11T21:38:30.813Z,9.73
2019-01-11T21:41:00.104Z,5.97
2019-01-11T21:43:29.459Z,7.70
2019-01-11T21:46:03.336Z,4.50
2019-01-11T21:48:29.929Z,5.93
2019-01-11T21:50:59.327Z,5.63
2019-01-11T21:53:28.651Z,5.63
2019-01-11T21:55:57.983Z,3.90
2019-01-11T21:58:27.321Z,9.87
2019-01-11T22:00:57.664Z,8.90
2019-01-11T22:03:27.043Z,9.58
2019-01-11T22:05:56.368Z,9.70
2019-01-11T22:08:25.705Z,8.43
2019-01-11T22:10:55.122Z,5.83
2019-01-11T22:13:24.451Z,11.17
2019-01-11T22:15:53.855Z,7.57
2019-01-11T22:18:23.244Z,6.07
2019-01-11T22:20:52.602Z,13.47
2019-01-11T22:23:23.677Z,7.33
2019-01-11T22:25:53.074Z,7.80
2019-01-11T22:28:22.378Z,6.77
2019-01-11T22:30:51.774Z,4.77
2019-01-11T22:33:21.106Z,8.83
2019-01-11T22:35:50.523Z,4.83
2019-01-11T22:38:19.952Z,9.60
2019-01-11T22:40:49.294Z,6.53
2019-01-11T22:43:18.629Z,11.80
2019-01-11T22:45:47.925Z,7.67
2019-01-11T22:48:20.023Z,5.90
2019-01-11T22:50:49.350Z,16.93
2019-01-11T22:53:18.687Z,12.97
2019-01-11T22:55:48.072Z,9.00
2019-01-11T22:58:17.455Z,5.50
2019-01-11T23:01:40.299Z,6.93
2019-01-11T23:04:09.634Z,9.77
2019-01-11T23:06:59.377Z,6.03
2019-01-11T23:09:55.924Z,6.93
2019-01-11T23:12:44.668Z,8.00
2019-01-11T23:15:28.020Z,7.03
2019-01-11T23:18:09.896Z,15.87
2019-01-11T23:20:39.188Z,5.50
2019-01-11T23:23:08.539Z,10.30
2019-01-11T23:25:37.842Z,10.30
2019-01-11T23:28:07.304Z,10.08
2019-01-11T23:30:36.637Z,6.70
2019-01-11T23:33:06.135Z,3.37
2019-01-11T23:35:35.491Z,12.60
2019-01-11T23:38:05.055Z,4.80
2019-01-11T23:40:37.471Z,5.33
2019-01-11T23:43:06.959Z,5.23
2019-01-11T23:45:36.281Z,4.17
2019-01-11T23:48:05.822Z,3.57
2019-01-11T23:50:39.552Z,7.00
2019-01-11T23:53:13.220Z,8.20
2019-01-11T23:55:44.384Z,6.73
2019-01-11T23:58:13.750Z,8.10
